Time;durP1;ratioP1;P1;durP2;ratioP2;P2;SDS_P1;SDS_P2;PMS_P1;PMS_P2;Temp;Humidity;BMP_temperature;BMP_pressure;BME280_temperature;BME280_humidity;BME280_pressure;Samples;Min_cycle;Max_cycle;Signal;HPM_P1;HPM_P2
2023/07/26 00:02:18;;;;;;;4.65;1.60;;;15.80;99.90;;;;;;5125132;27;20024;-75
2023/07/26 00:04:44;;;;;;;4.13;1.90;;;15.70;99.90;;;;;;5128395;27;20038;-75
2023/07/26 00:07:10;;;;;;;3.22;1.63;;;15.70;99.90;;;;;;5132869;27;20046;-75
2023/07/26 00:09:35;;;;;;;3.67;1.80;;;15.70;99.90;;;;;;5133380;27;20380;-75
2023/07/26 00:12:01;;;;;;;3.10;1.73;;;15.60;99.90;;;;;;5127024;27;20487;-76
2023/07/26 00:14:27;;;;;;;5.72;1.67;;;15.60;99.90;;;;;;5132899;27;20023;-76
2023/07/26 00:16:52;;;;;;;3.25;1.58;;;15.60;99.90;;;;;;5132764;27;20164;-76
2023/07/26 00:19:19;;;;;;;2.88;1.70;;;15.60;99.90;;;;;;5133236;27;20027;-76
2023/07/26 00:21:46;;;;;;;3.05;1.70;;;15.60;99.90;;;;;;5132423;27;20424;-76
2023/07/26 00:24:11;;;;;;;3.60;1.67;;;15.50;99.90;;;;;;5132737;27;20087;-76
2023/07/26 00:26:37;;;;;;;3.72;1.70;;;15.50;99.90;;;;;;5132531;27;20047;-76
2023/07/26 00:29:03;;;;;;;5.45;2.15;;;15.40;99.90;;;;;;5129305;27;20099;-76
2023/07/26 00:31:29;;;;;;;4.32;2.00;;;15.40;99.90;;;;;;5122168;27;20106;-76
2023/07/26 00:33:54;;;;;;;5.03;1.90;;;15.40;99.90;;;;;;5132010;27;20074;-76
2023/07/26 00:36:20;;;;;;;4.10;1.70;;;15.40;99.90;;;;;;5124893;27;20527;-74
2023/07/26 00:38:46;;;;;;;2.65;1.63;;;15.30;99.90;;;;;;5129307;27;20054;-74
2023/07/26 00:41:12;;;;;;;4.93;1.80;;;15.30;99.90;;;;;;5102916;27;20023;-74
2023/07/26 00:43:38;;;;;;;5.03;2.10;;;15.30;99.90;;;;;;5129597;27;20023;-75
2023/07/26 00:46:05;;;;;;;2.97;1.63;;;15.20;99.90;;;;;;5132490;27;20347;-75
2023/07/26 00:48:32;;;;;;;3.40;1.80;;;15.20;99.90;;;;;;5132182;27;20038;-75
2023/07/26 00:50:59;;;;;;;4.28;1.90;;;15.10;99.90;;;;;;5129791;27;20046;-75
2023/07/26 00:53:26;;;;;;;4.32;1.95;;;15.10;99.90;;;;;;5124797;27;20159;-75
2023/07/26 00:55:53;;;;;;;3.78;1.92;;;15.10;99.90;;;;;;5132187;27;20016;-75
2023/07/26 00:58:20;;;;;;;3.80;2.03;;;15.00;99.90;;;;;;5132575;28;20023;-75
2023/07/26 01:00:46;;;;;;;4.47;2.15;;;15.00;99.90;;;;;;5132229;28;20372;-75
2023/07/26 01:03:13;;;;;;;5.82;2.30;;;15.00;99.90;;;;;;5131898;28;20011;-75
2023/07/26 01:05:55;;;;;;;6.47;2.42;;;15.00;99.90;;;;;;5132531;28;20034;-75
2023/07/26 01:08:47;;;;;;;4.30;2.17;;;14.90;99.90;;;;;;5127110;28;20027;-75
2023/07/26 01:11:29;;;;;;;5.55;2.38;;;14.90;99.90;;;;;;5128027;28;20108;-75
2023/07/26 01:14:21;;;;;;;3.13;1.98;;;14.90;99.90;;;;;;5132415;28;20023;-75
2023/07/26 01:16:47;;;;;;;4.32;2.30;;;14.80;99.90;;;;;;5118409;28;20496;-75
2023/07/26 01:19:13;;;;;;;3.33;2.22;;;14.80;99.90;;;;;;5127683;28;20148;-75
2023/07/26 01:21:38;;;;;;;3.13;2.22;;;14.80;99.90;;;;;;5132213;28;20076;-75
2023/07/26 01:24:04;;;;;;;4.93;2.35;;;14.70;99.90;;;;;;5132159;28;20098;-74
2023/07/26 01:26:30;;;;;;;5.60;2.70;;;14.70;99.90;;;;;;5130282;28;20080;-74
2023/07/26 01:28:56;;;;;;;6.43;2.63;;;14.70;99.90;;;;;;5131891;28;21128;-75
2023/07/26 01:31:24;;;;;;;5.38;2.50;;;14.70;99.90;;;;;;5131754;28;20468;-75
2023/07/26 01:33:52;;;;;;;6.60;2.90;;;14.70;99.90;;;;;;5131884;28;20359;-75
2023/07/26 01:36:22;;;;;;;4.75;2.63;;;14.60;99.90;;;;;;5130183;28;20103;-75
2023/07/26 01:38:48;;;;;;;4.13;2.53;;;14.60;99.90;;;;;;5131757;28;20026;-76
2023/07/26 01:41:15;;;;;;;3.78;2.53;;;14.60;99.90;;;;;;5117932;28;20114;-75
2023/07/26 01:43:41;;;;;;;3.50;2.38;;;14.50;99.90;;;;;;5131671;28;20103;-74
2023/07/26 01:46:11;;;;;;;7.10;2.58;;;14.50;99.90;;;;;;5131988;28;20395;-75
2023/07/26 01:48:37;;;;;;;4.78;2.95;;;14.50;99.90;;;;;;5131621;28;20015;-75
2023/07/26 01:51:03;;;;;;;6.10;2.80;;;14.50;99.90;;;;;;5131697;28;20597;-75
2023/07/26 01:53:28;;;;;;;5.78;3.28;;;14.40;99.90;;;;;;5131705;28;20046;-75
2023/07/26 01:55:54;;;;;;;8.57;3.40;;;14.40;99.90;;;;;;5131662;28;20047;-75
2023/07/26 01:58:19;;;;;;;6.28;2.95;;;14.40;99.90;;;;;;5127954;28;20085;-75
2023/07/26 02:00:45;;;;;;;5.93;3.30;;;14.40;99.90;;;;;;5131589;28;20034;-75
2023/07/26 02:03:10;;;;;;;5.40;3.22;;;14.40;99.90;;;;;;5129043;28;20019;-75
2023/07/26 02:05:45;;;;;;;4.95;3.13;;;14.30;99.90;;;;;;5122667;27;20031;-75
2023/07/26 02:08:12;;;;;;;8.45;3.53;;;14.30;99.90;;;;;;5123807;27;20022;-76
2023/07/26 02:10:39;;;;;;;5.50;3.58;;;14.30;99.90;;;;;;5135277;27;20023;-76
2023/07/26 02:13:05;;;;;;;8.27;3.42;;;14.30;99.90;;;;;;5124826;27;20045;-76
2023/07/26 02:15:31;;;;;;;7.32;3.55;;;14.30;99.90;;;;;;5122915;27;20016;-76
2023/07/26 02:17:57;;;;;;;6.05;3.22;;;14.20;99.90;;;;;;5120739;27;20424;-76
2023/07/26 02:20:22;;;;;;;8.43;3.78;;;14.20;99.90;;;;;;5106770;28;20047;-76
2023/07/26 02:22:48;;;;;;;5.65;3.75;;;14.20;99.90;;;;;;5129903;27;20043;-76
2023/07/26 02:25:14;;;;;;;5.72;3.65;;;14.20;99.90;;;;;;5126804;27;20030;-76
2023/07/26 02:27:40;;;;;;;6.45;3.40;;;14.20;99.90;;;;;;5134095;27;20023;-76
2023/07/26 02:30:06;;;;;;;7.13;3.35;;;14.20;99.90;;;;;;5127080;27;20403;-76
2023/07/26 02:32:32;;;;;;;5.65;3.20;;;14.20;99.90;;;;;;5134869;27;20034;-76
2023/07/26 02:34:58;;;;;;;5.85;3.40;;;14.20;99.90;;;;;;5134597;27;20103;-76
2023/07/26 02:37:23;;;;;;;6.55;3.15;;;14.20;99.90;;;;;;5134788;27;20019;-76
2023/07/26 02:39:50;;;;;;;6.63;3.30;;;14.20;99.90;;;;;;5134467;27;20051;-76
2023/07/26 02:42:16;;;;;;;6.97;2.92;;;14.20;99.90;;;;;;5135077;27;20051;-76
2023/07/26 02:44:42;;;;;;;5.10;2.85;;;14.20;99.90;;;;;;5134366;27;20038;-76
2023/07/26 02:47:07;;;;;;;6.18;2.90;;;14.20;99.90;;;;;;5134720;27;20028;-76
2023/07/26 02:49:33;;;;;;;4.50;3.20;;;14.20;99.90;;;;;;5135272;27;20030;-75
2023/07/26 02:51:59;;;;;;;5.38;2.72;;;14.10;99.90;;;;;;5134050;27;20086;-75
2023/07/26 02:54:24;;;;;;;3.85;2.78;;;14.20;99.90;;;;;;5134359;27;20019;-75
2023/07/26 02:56:50;;;;;;;4.85;3.00;;;14.20;99.90;;;;;;5120117;27;20547;-75
2023/07/26 02:59:18;;;;;;;5.82;2.78;;;14.20;99.90;;;;;;5134251;27;20031;-75
2023/07/26 03:01:44;;;;;;;4.82;3.00;;;14.20;99.90;;;;;;5121964;27;20055;-75
2023/07/26 03:04:10;;;;;;;6.15;2.85;;;14.20;99.90;;;;;;5116838;27;20076;-76
2023/07/26 03:06:36;;;;;;;9.75;3.35;;;14.20;99.90;;;;;;5129417;27;20387;-76
2023/07/26 03:09:02;;;;;;;5.63;3.10;;;14.30;99.90;;;;;;5131426;27;20008;-75
2023/07/26 03:11:28;;;;;;;7.53;3.47;;;14.30;99.90;;;;;;5122879;27;20034;-75
2023/07/26 03:13:55;;;;;;;4.72;3.10;;;14.30;99.90;;;;;;5133186;27;20035;-75
2023/07/26 03:16:21;;;;;;;4.65;3.40;;;14.30;99.90;;;;;;5122433;27;20106;-75
2023/07/26 03:18:47;;;;;;;5.68;3.25;;;14.40;99.90;;;;;;5133506;27;20042;-75
2023/07/26 03:21:12;;;;;;;5.10;3.47;;;14.40;99.90;;;;;;5134038;27;20019;-75
2023/07/26 03:23:38;;;;;;;5.32;3.40;;;14.50;99.90;;;;;;5133715;27;20069;-75
2023/07/26 03:26:04;;;;;;;5.70;3.40;;;14.50;99.90;;;;;;5133776;27;20424;-76
2023/07/26 03:28:29;;;;;;;5.43;3.15;;;14.50;99.90;;;;;;5133440;27;20029;-76
2023/07/26 03:30:55;;;;;;;5.82;3.38;;;14.50;99.90;;;;;;5133687;27;20438;-76
2023/07/26 03:33:21;;;;;;;6.65;3.03;;;14.60;99.90;;;;;;5133397;27;20483;-76
2023/07/26 03:35:47;;;;;;;5.68;3.42;;;14.60;99.90;;;;;;5133474;27;20042;-76
2023/07/26 03:38:13;;;;;;;6.18;3.25;;;14.60;99.90;;;;;;5129746;27;20016;-76
2023/07/26 03:40:40;;;;;;;7.70;3.40;;;14.60;99.90;;;;;;5102583;28;20031;-76
2023/07/26 03:43:09;;;;;;;5.97;3.47;;;14.70;99.90;;;;;;5131151;27;20060;-75
2023/07/26 03:45:35;;;;;;;6.35;4.00;;;14.70;99.90;;;;;;5115182;27;20037;-75
2023/07/26 03:48:01;;;;;;;5.75;3.80;;;14.80;99.90;;;;;;5131537;27;20016;-75
2023/07/26 03:50:26;;;;;;;6.45;3.83;;;14.80;99.90;;;;;;5133403;27;20125;-75
2023/07/26 03:52:52;;;;;;;8.52;3.97;;;14.80;99.90;;;;;;5133083;27;20043;-75
2023/07/26 03:55:18;;;;;;;6.95;4.15;;;14.80;99.90;;;;;;5132888;27;20015;-75
2023/07/26 03:57:43;;;;;;;6.13;4.10;;;14.90;99.90;;;;;;5126392;27;20045;-75
2023/07/26 04:00:09;;;;;;;6.28;3.80;;;14.90;99.90;;;;;;5132790;27;20463;-75
2023/07/26 04:02:35;;;;;;;5.35;3.70;;;14.90;99.90;;;;;;5133388;27;20034;-75
2023/07/26 04:05:01;;;;;;;7.30;3.80;;;14.90;99.90;;;;;;5131846;27;20019;-75
2023/07/26 04:07:26;;;;;;;5.97;3.53;;;15.00;99.90;;;;;;5132557;27;20022;-76
2023/07/26 04:09:52;;;;;;;6.88;3.83;;;15.00;99.90;;;;;;5132868;27;20034;-76
2023/07/26 04:12:18;;;;;;;5.43;3.70;;;15.00;99.90;;;;;;5132576;27;20475;-76
2023/07/26 04:14:44;;;;;;;6.07;4.03;;;15.00;99.90;;;;;;5132496;27;20539;-76
2023/07/26 04:17:09;;;;;;;6.07;3.50;;;15.00;99.90;;;;;;5132535;27;20018;-76
2023/07/26 04:19:35;;;;;;;5.18;3.60;;;15.00;99.90;;;;;;5123917;27;20016;-76
2023/07/26 04:22:01;;;;;;;7.38;3.97;;;15.10;99.90;;;;;;5132232;27;20022;-76
2023/07/26 04:24:27;;;;;;;8.02;4.30;;;15.10;99.90;;;;;;5110595;28;20023;-76
2023/07/26 04:26:53;;;;;;;6.60;4.03;;;15.10;99.90;;;;;;5130572;27;20415;-76
2023/07/26 04:29:19;;;;;;;8.30;4.45;;;15.10;99.90;;;;;;5130351;27;20023;-74
2023/07/26 04:31:45;;;;;;;7.95;4.43;;;15.10;99.90;;;;;;5130907;27;20031;-75
2023/07/26 04:34:12;;;;;;;6.28;4.05;;;15.20;99.90;;;;;;5132801;27;20057;-75
2023/07/26 04:36:38;;;;;;;7.13;4.18;;;15.20;99.90;;;;;;5131363;27;20015;-75
2023/07/26 04:39:04;;;;;;;11.45;4.70;;;15.20;99.90;;;;;;5132543;27;20023;-75
2023/07/26 04:41:30;;;;;;;8.27;3.85;;;15.20;99.90;;;;;;5113864;27;20027;-75
2023/07/26 04:43:55;;;;;;;7.97;4.30;;;15.20;99.90;;;;;;5132442;27;20022;-75
2023/07/26 04:46:21;;;;;;;8.68;4.82;;;15.20;99.90;;;;;;5121371;27;20065;-75
2023/07/26 04:48:50;;;;;;;10.23;4.78;;;15.20;99.90;;;;;;5125666;27;20048;-76
2023/07/26 04:51:16;;;;;;;7.30;4.30;;;15.30;99.90;;;;;;5099834;27;20058;-74
2023/07/26 04:53:41;;;;;;;8.50;4.60;;;15.20;99.90;;;;;;5028210;28;20116;-74
2023/07/26 04:56:07;;;;;;;9.52;4.65;;;15.30;99.90;;;;;;5028388;28;20044;-75
2023/07/26 04:58:33;;;;;;;8.70;5.03;;;15.30;99.90;;;;;;5025647;28;20045;-75
2023/07/26 05:00:58;;;;;;;10.00;5.00;;;15.30;99.90;;;;;;5096429;28;20018;-75
2023/07/26 05:03:24;;;;;;;10.75;4.63;;;15.30;99.90;;;;;;5026826;28;20037;-76
2023/07/26 05:05:50;;;;;;;6.97;3.97;;;15.30;99.90;;;;;;5075730;28;20071;-76
2023/07/26 05:08:17;;;;;;;7.80;4.25;;;15.30;99.90;;;;;;5028696;28;20026;-76
2023/07/26 05:10:42;;;;;;;12.07;5.50;;;15.30;99.90;;;;;;5014665;28;20044;-76
2023/07/26 05:13:08;;;;;;;9.13;4.93;;;15.30;99.90;;;;;;5027991;28;20025;-76
2023/07/26 05:15:33;;;;;;;10.07;5.00;;;15.30;99.90;;;;;;5027621;28;20068;-76
2023/07/26 05:17:59;;;;;;;9.20;5.22;;;15.30;99.90;;;;;;5028293;28;20362;-75
2023/07/26 05:20:25;;;;;;;12.38;5.80;;;15.30;99.90;;;;;;5028010;28;20022;-76
2023/07/26 05:22:50;;;;;;;11.57;5.57;;;15.30;99.90;;;;;;5027739;28;20059;-76
2023/07/26 05:25:17;;;;;;;11.30;5.22;;;15.30;99.90;;;;;;5020400;28;20022;-76
2023/07/26 05:27:43;;;;;;;8.63;5.68;;;15.30;99.90;;;;;;5027637;28;20022;-76
2023/07/26 05:30:08;;;;;;;8.13;5.43;;;15.20;99.90;;;;;;5027514;28;20219;-75
2023/07/26 05:32:35;;;;;;;9.48;5.55;;;15.20;99.90;;;;;;5027777;28;20493;-75
2023/07/26 05:35:01;;;;;;;9.88;5.60;;;15.20;99.90;;;;;;5027664;28;20018;-75
2023/07/26 05:37:26;;;;;;;10.73;5.43;;;15.20;99.90;;;;;;5027874;28;20033;-75
2023/07/26 05:39:52;;;;;;;10.18;5.80;;;15.20;99.90;;;;;;5081252;28;20021;-75
2023/07/26 05:42:18;;;;;;;9.55;6.35;;;15.10;99.90;;;;;;5023286;28;20504;-76
2023/07/26 05:44:44;;;;;;;10.85;6.53;;;15.10;99.90;;;;;;5031105;28;20525;-75
2023/07/26 05:47:11;;;;;;;10.68;6.60;;;15.10;99.90;;;;;;5031123;28;20101;-76
2023/07/26 05:49:40;;;;;;;14.05;7.40;;;15.10;99.90;;;;;;5031256;28;20029;-75
2023/07/26 05:52:06;;;;;;;14.80;7.70;;;15.10;99.90;;;;;;5091569;27;20046;-75
2023/07/26 05:54:32;;;;;;;12.88;7.82;;;15.00;99.90;;;;;;5126031;27;20024;-75
2023/07/26 05:56:58;;;;;;;11.35;7.40;;;15.10;99.90;;;;;;5132015;27;20521;-75
2023/07/26 05:59:23;;;;;;;14.30;7.05;;;15.00;99.90;;;;;;5126712;27;20031;-74
2023/07/26 06:01:49;;;;;;;10.05;6.57;;;15.00;99.90;;;;;;5134958;27;20026;-74
2023/07/26 06:04:15;;;;;;;12.13;7.57;;;15.00;99.90;;;;;;5135230;27;20106;-75
2023/07/26 06:06:41;;;;;;;13.45;7.50;;;15.00;99.90;;;;;;5134657;27;20023;-75
2023/07/26 06:09:07;;;;;;;9.18;6.93;;;15.00;99.90;;;;;;5115516;27;20015;-75
2023/07/26 06:11:34;;;;;;;13.43;6.47;;;15.10;99.90;;;;;;5134320;27;20026;-74
2023/07/26 06:13:59;;;;;;;12.35;6.32;;;15.10;99.90;;;;;;5134493;27;20083;-74
2023/07/26 06:16:26;;;;;;;11.75;6.57;;;15.10;99.90;;;;;;5115360;27;20554;-74
2023/07/26 06:18:51;;;;;;;10.38;6.45;;;15.10;99.90;;;;;;5134364;27;20043;-75
2023/07/26 06:21:18;;;;;;;12.55;6.32;;;15.20;99.90;;;;;;5126339;27;20023;-74
2023/07/26 06:23:44;;;;;;;13.07;6.68;;;15.20;99.90;;;;;;5133830;27;20015;-74
2023/07/26 06:26:10;;;;;;;10.90;7.07;;;15.30;99.90;;;;;;5120979;27;20373;-75
2023/07/26 06:28:36;;;;;;;9.75;6.47;;;15.30;99.90;;;;;;5132920;27;20234;-75
2023/07/26 06:31:01;;;;;;;11.60;6.53;;;15.40;99.90;;;;;;5131454;27;20023;-75
2023/07/26 06:33:27;;;;;;;12.98;5.90;;;15.40;99.90;;;;;;5133084;27;20555;-75
2023/07/26 06:35:54;;;;;;;9.48;6.18;;;15.50;99.90;;;;;;5133947;27;20011;-75
2023/07/26 06:38:20;;;;;;;10.88;6.07;;;15.60;99.90;;;;;;5132478;27;20050;-75
2023/07/26 06:40:46;;;;;;;10.82;6.20;;;15.70;99.90;;;;;;5133598;27;20024;-74
2023/07/26 06:43:12;;;;;;;12.15;5.97;;;15.80;99.90;;;;;;5133481;27;20050;-74
2023/07/26 06:45:37;;;;;;;11.13;5.93;;;16.00;99.90;;;;;;5122990;27;20054;-75
2023/07/26 06:48:03;;;;;;;13.38;5.72;;;16.10;99.90;;;;;;5132723;27;20019;-75
2023/07/26 06:50:29;;;;;;;9.00;4.90;;;16.20;99.90;;;;;;5132284;27;20070;-75
2023/07/26 06:52:54;;;;;;;8.50;3.90;;;16.20;99.90;;;;;;5127991;27;20092;-75
2023/07/26 06:55:20;;;;;;;9.52;4.07;;;16.30;99.90;;;;;;5133117;27;20455;-75
2023/07/26 06:57:45;;;;;;;11.38;4.05;;;16.40;99.90;;;;;;5133603;27;20094;-75
2023/07/26 07:00:14;;;;;;;7.95;3.90;;;16.40;99.90;;;;;;5133033;27;20064;-74
2023/07/26 07:02:40;;;;;;;10.93;4.03;;;16.30;99.90;;;;;;5133828;27;20325;-75
2023/07/26 07:05:07;;;;;;;10.43;4.15;;;16.40;99.90;;;;;;5133230;27;20034;-75
2023/07/26 07:07:32;;;;;;;10.95;4.13;;;16.40;99.90;;;;;;5133257;27;20017;-76
2023/07/26 07:09:58;;;;;;;11.30;3.95;;;16.50;99.90;;;;;;5133233;27;20407;-75
2023/07/26 07:12:23;;;;;;;9.07;4.60;;;16.50;99.90;;;;;;5130799;27;20103;-74
2023/07/26 07:14:49;;;;;;;6.97;4.32;;;16.60;99.90;;;;;;5116327;27;20020;-75
2023/07/26 07:17:14;;;;;;;11.85;4.30;;;16.70;99.90;;;;;;5131944;27;20032;-74
2023/07/26 07:19:40;;;;;;;11.73;4.45;;;16.80;99.90;;;;;;5133201;27;20030;-74
2023/07/26 07:22:06;;;;;;;8.18;4.15;;;16.80;99.90;;;;;;5132881;27;20022;-75
2023/07/26 07:24:34;;;;;;;10.52;4.07;;;16.80;99.90;;;;;;5124233;27;20023;-75
2023/07/26 07:26:59;;;;;;;9.52;4.28;;;16.80;99.90;;;;;;5133494;27;20019;-75
2023/07/26 07:29:25;;;;;;;11.30;4.28;;;16.80;99.90;;;;;;5132313;27;20112;-75
2023/07/26 07:31:50;;;;;;;7.95;4.28;;;16.90;99.90;;;;;;5127238;27;20441;-75
2023/07/26 07:34:16;;;;;;;7.20;3.75;;;17.00;99.90;;;;;;5128735;27;20046;-75
2023/07/26 07:36:42;;;;;;;9.50;4.10;;;17.10;99.90;;;;;;5133246;27;20018;-75
2023/07/26 07:39:09;;;;;;;8.30;3.95;;;17.20;99.90;;;;;;5132938;27;20031;-75
2023/07/26 07:41:36;;;;;;;12.55;3.80;;;17.40;99.90;;;;;;5133341;27;20023;-75
2023/07/26 07:44:02;;;;;;;7.55;3.42;;;17.60;99.90;;;;;;5132664;27;20019;-75
2023/07/26 07:46:28;;;;;;;6.00;3.88;;;17.80;99.90;;;;;;5121037;27;20094;-75
2023/07/26 07:48:55;;;;;;;6.00;3.22;;;17.90;99.90;;;;;;5133804;27;20044;-76
2023/07/26 07:51:21;;;;;;;8.40;3.30;;;18.00;99.90;;;;;;5135926;27;20108;-76
2023/07/26 07:53:48;;;;;;;7.97;3.70;;;18.10;99.90;;;;;;5109177;28;20054;-76
2023/07/26 07:56:14;;;;;;;6.75;3.40;;;18.10;99.90;;;;;;5109097;27;20019;-76
2023/07/26 07:58:40;;;;;;;7.40;3.30;;;18.20;99.90;;;;;;5134109;27;20023;-76
2023/07/26 08:01:05;;;;;;;5.90;3.40;;;18.40;99.90;;;;;;5134251;27;20054;-75
2023/07/26 08:03:31;;;;;;;7.82;3.38;;;18.60;99.90;;;;;;5116102;27;20412;-75
2023/07/26 08:05:57;;;;;;;7.20;3.45;;;18.50;99.90;;;;;;5115708;27;20019;-76
2023/07/26 08:08:23;;;;;;;6.38;3.35;;;18.60;99.90;;;;;;5133872;27;20011;-75
2023/07/26 08:10:49;;;;;;;8.13;3.55;;;18.60;99.90;;;;;;5132461;27;20016;-74
2023/07/26 08:13:15;;;;;;;6.47;3.30;;;18.70;99.90;;;;;;5124931;27;20046;-76
2023/07/26 08:15:41;;;;;;;6.22;3.05;;;18.70;99.90;;;;;;5132618;27;20417;-75
2023/07/26 08:18:07;;;;;;;8.68;3.40;;;18.80;99.90;;;;;;5134364;27;20019;-76
2023/07/26 08:20:36;;;;;;;9.18;3.50;;;18.90;99.90;;;;;;5134218;27;20041;-76
2023/07/26 08:23:05;;;;;;;8.82;3.28;;;19.10;99.90;;;;;;5126308;27;20075;-76
2023/07/26 08:25:31;;;;;;;8.85;3.25;;;19.30;99.90;;;;;;5111827;28;20027;-76
2023/07/26 08:27:57;;;;;;;6.47;3.30;;;19.40;99.90;;;;;;5132801;27;20425;-76
2023/07/26 08:30:23;;;;;;;5.88;2.97;;;19.50;99.90;;;;;;5124182;27;20023;-76
2023/07/26 08:32:48;;;;;;;6.60;3.33;;;19.60;99.90;;;;;;5120156;27;20094;-75
2023/07/26 08:35:14;;;;;;;6.10;2.70;;;19.70;99.90;;;;;;5111196;28;20114;-75
2023/07/26 08:37:40;;;;;;;6.13;3.10;;;19.70;99.90;;;;;;5127965;27;20023;-76
2023/07/26 08:40:06;;;;;;;7.40;3.20;;;19.70;99.90;;;;;;5127566;27;20027;-75
2023/07/26 08:42:32;;;;;;;5.60;3.17;;;19.80;99.90;;;;;;5125339;27;20411;-75
2023/07/26 08:44:59;;;;;;;6.32;2.90;;;19.90;99.90;;;;;;5126257;27;20012;-75
2023/07/26 08:47:25;;;;;;;4.85;3.20;;;19.80;99.90;;;;;;5124162;27;20383;-75
2023/07/26 08:49:52;;;;;;;6.60;3.17;;;20.00;99.90;;;;;;5131132;27;20468;-75
2023/07/26 08:52:18;;;;;;;5.93;3.25;;;20.10;99.90;;;;;;5122271;28;20061;-75
2023/07/26 08:54:48;;;;;;;5.82;2.72;;;20.30;99.90;;;;;;5131026;27;20050;-75
2023/07/26 08:57:16;;;;;;;4.63;2.80;;;20.40;99.90;;;;;;5131066;28;20072;-75
2023/07/26 08:59:42;;;;;;;10.00;3.08;;;20.40;99.90;;;;;;5131791;27;20031;-75
2023/07/26 09:02:10;;;;;;;4.80;2.55;;;20.30;99.90;;;;;;5129558;28;20068;-75
2023/07/26 09:04:36;;;;;;;4.35;2.97;;;20.20;99.90;;;;;;5118428;28;20034;-75
2023/07/26 09:07:06;;;;;;;6.05;2.88;;;20.30;99.90;;;;;;5126392;28;20383;-75
2023/07/26 09:09:33;;;;;;;7.20;2.90;;;20.30;99.90;;;;;;5131100;28;20030;-75
2023/07/26 09:11:59;;;;;;;4.07;2.13;;;20.40;99.90;;;;;;5130831;28;20023;-75
2023/07/26 09:14:31;;;;;;;3.78;2.67;;;20.50;99.90;;;;;;5134008;27;20057;-75
2023/07/26 09:16:58;;;;;;;7.80;2.80;;;20.60;99.90;;;;;;5134883;27;20027;-75
2023/07/26 09:19:28;;;;;;;8.25;2.95;;;20.70;99.90;;;;;;5135242;27;20068;-75
2023/07/26 09:22:00;;;;;;;5.88;2.90;;;20.80;99.90;;;;;;5136722;27;20034;-75
2023/07/26 09:24:36;;;;;;;4.53;2.67;;;20.90;99.90;;;;;;5130591;27;20019;-75
2023/07/26 09:27:10;;;;;;;6.32;3.10;;;21.00;99.90;;;;;;5136651;27;20015;-75
2023/07/26 09:29:38;;;;;;;11.68;3.08;;;21.10;99.90;;;;;;5137166;27;20054;-75
2023/07/26 09:32:05;;;;;;;7.65;3.28;;;21.10;99.90;;;;;;5127261;27;20382;-75
2023/07/26 09:34:32;;;;;;;7.15;2.92;;;21.00;99.90;;;;;;5134536;27;20511;-75
2023/07/26 09:36:58;;;;;;;5.43;2.97;;;20.70;99.90;;;;;;5136024;27;20011;-75
2023/07/26 09:39:25;;;;;;;5.38;2.80;;;20.50;99.90;;;;;;5134282;27;20492;-75
2023/07/26 09:42:06;;;;;;;9.35;3.00;;;20.40;99.90;;;;;;5135149;27;20023;-75
2023/07/26 09:44:32;;;;;;;5.97;3.20;;;20.30;99.90;;;;;;5104194;27;20056;-75
2023/07/26 09:46:58;;;;;;;7.28;3.05;;;20.50;99.90;;;;;;5134631;27;20022;-75
2023/07/26 09:49:32;;;;;;;7.13;2.78;;;20.70;99.90;;;;;;5127815;27;20027;-75
2023/07/26 09:51:59;;;;;;;6.45;3.10;;;20.90;99.90;;;;;;5110552;27;20052;-75
2023/07/26 09:54:33;;;;;;;5.50;3.22;;;21.10;99.90;;;;;;5134798;27;20019;-75
2023/07/26 09:57:00;;;;;;;6.00;2.97;;;21.10;99.90;;;;;;5134230;27;20163;-75
2023/07/26 09:59:28;;;;;;;6.22;2.53;;;21.30;99.90;;;;;;5114042;27;20114;-75
2023/07/26 10:01:54;;;;;;;5.38;2.80;;;21.40;99.90;;;;;;5134186;27;20015;-75
2023/07/26 10:04:39;;;;;;;5.10;2.70;;;21.50;99.50;;;;;;5134470;27;20034;-75
2023/07/26 10:07:09;;;;;;;4.43;2.80;;;21.50;99.30;;;;;;5132892;27;20027;-75
2023/07/26 10:09:39;;;;;;;6.93;2.95;;;21.60;98.80;;;;;;5123243;27;20041;-75
2023/07/26 10:12:07;;;;;;;6.40;3.10;;;21.60;98.40;;;;;;5133799;27;20114;-75
2023/07/26 10:14:35;;;;;;;6.25;2.90;;;21.50;98.60;;;;;;5123507;27;20383;-75
2023/07/26 10:17:02;;;;;;;5.88;2.70;;;21.30;98.00;;;;;;5133734;27;20072;-75
2023/07/26 10:19:29;;;;;;;6.20;3.05;;;21.30;98.40;;;;;;5134163;27;20047;-74
2023/07/26 10:21:56;;;;;;;5.93;2.80;;;21.50;98.30;;;;;;5133948;27;20022;-74
2023/07/26 10:24:23;;;;;;;5.45;3.42;;;21.50;98.40;;;;;;5133426;27;20019;-74
2023/07/26 10:26:49;;;;;;;18.52;3.30;;;21.50;98.50;;;;;;5133118;27;20024;-75
2023/07/26 10:29:19;;;;;;;5.40;3.08;;;21.50;98.10;;;;;;5132414;27;20023;-75
2023/07/26 10:31:46;;;;;;;4.75;2.60;;;21.50;98.60;;;;;;5132541;27;20519;-76
2023/07/26 10:34:20;;;;;;;7.15;2.97;;;21.50;98.60;;;;;;5133642;27;20051;-75
2023/07/26 10:36:46;;;;;;;6.55;3.03;;;21.70;98.20;;;;;;5121166;27;20118;-75
2023/07/26 10:39:12;;;;;;;6.13;3.20;;;21.80;98.20;;;;;;5133878;27;20507;-75
2023/07/26 10:41:47;;;;;;;4.18;2.95;;;21.90;97.70;;;;;;5133478;27;20019;-75
2023/07/26 10:44:13;;;;;;;7.53;3.22;;;21.90;96.90;;;;;;5133915;27;20019;-75
2023/07/26 10:47:03;;;;;;;6.72;3.30;;;21.80;97.30;;;;;;5134105;27;20514;-75
2023/07/26 10:49:31;;;;;;;6.85;2.75;;;21.80;97.40;;;;;;5101610;27;20043;-76
2023/07/26 10:51:58;;;;;;;5.40;3.10;;;21.90;97.20;;;;;;5127239;27;20051;-75
2023/07/26 10:54:41;;;;;;;6.80;3.35;;;21.90;96.50;;;;;;5129131;27;20460;-76
2023/07/26 10:57:16;;;;;;;7.47;3.60;;;21.80;96.60;;;;;;5133619;27;20016;-75
2023/07/26 11:00:04;;;;;;;5.80;3.38;;;21.80;96.90;;;;;;5134347;27;20034;-75
2023/07/26 11:02:49;;;;;;;5.15;3.30;;;21.90;97.40;;;;;;5123566;27;20499;-75
2023/07/26 11:05:20;;;;;;;5.18;2.90;;;22.10;96.70;;;;;;5115731;27;20027;-76
2023/07/26 11:08:11;;;;;;;6.85;3.28;;;22.00;96.30;;;;;;5121511;27;20357;-75
2023/07/26 11:10:48;;;;;;;6.82;3.00;;;22.10;96.40;;;;;;5133967;27;20403;-76
2023/07/26 11:13:26;;;;;;;5.32;2.95;;;22.20;95.90;;;;;;5135041;27;20031;-75
2023/07/26 11:15:52;;;;;;;4.32;3.00;;;22.30;95.50;;;;;;5132916;27;20080;-75
2023/07/26 11:18:19;;;;;;;6.28;3.30;;;22.30;95.50;;;;;;5135694;27;20575;-75
2023/07/26 11:20:52;;;;;;;6.57;2.92;;;22.40;95.30;;;;;;5127941;27;20714;-76
2023/07/26 11:23:19;;;;;;;5.90;2.63;;;22.30;94.60;;;;;;5135933;27;20019;-76
2023/07/26 11:25:49;;;;;;;3.80;2.42;;;22.30;94.60;;;;;;5135791;27;20427;-76
2023/07/26 11:28:15;;;;;;;4.88;3.25;;;22.30;93.60;;;;;;5135899;27;20047;-76
2023/07/26 11:30:46;;;;;;;3.90;2.80;;;22.20;94.40;;;;;;5136188;27;20061;-76
2023/07/26 11:33:12;;;;;;;5.57;2.85;;;22.30;94.10;;;;;;5118325;27;20027;-75
2023/07/26 11:35:41;;;;;;;5.40;2.90;;;22.30;93.80;;;;;;5136141;27;20368;-76
2023/07/26 11:38:11;;;;;;;4.13;2.72;;;22.40;93.30;;;;;;5135947;27;20023;-75
2023/07/26 11:40:42;;;;;;;4.28;2.53;;;22.40;93.30;;;;;;5135566;27;20027;-75
2023/07/26 11:43:09;;;;;;;4.53;2.58;;;22.30;92.80;;;;;;5135066;27;20023;-75
2023/07/26 11:45:38;;;;;;;5.50;2.92;;;22.40;91.80;;;;;;5135548;27;20019;-75
2023/07/26 11:48:10;;;;;;;5.63;2.80;;;22.40;91.90;;;;;;5136111;27;20425;-75
2023/07/26 11:50:38;;;;;;;6.90;2.45;;;22.40;92.00;;;;;;5125882;27;20027;-76
2023/07/26 11:53:06;;;;;;;3.35;2.38;;;22.30;91.20;;;;;;5123400;27;20130;-75
2023/07/26 11:55:33;;;;;;;5.60;2.78;;;22.30;90.60;;;;;;5133121;27;20023;-75
2023/07/26 11:58:07;;;;;;;4.28;2.55;;;22.30;91.00;;;;;;5132722;27;20471;-75
2023/07/26 12:00:34;;;;;;;5.60;2.38;;;22.40;91.10;;;;;;5133099;27;20027;-76
2023/07/26 12:03:02;;;;;;;7.47;3.05;;;22.30;90.30;;;;;;5132633;27;20036;-75
2023/07/26 12:05:28;;;;;;;5.80;2.80;;;22.40;90.70;;;;;;5130888;27;20051;-75
2023/07/26 12:07:56;;;;;;;4.57;3.03;;;22.50;90.80;;;;;;5120815;27;20494;-76
2023/07/26 12:10:31;;;;;;;7.45;3.00;;;22.50;91.20;;;;;;5132003;27;20027;-75
2023/07/26 12:12:58;;;;;;;5.95;3.20;;;22.60;91.00;;;;;;5121915;27;20015;-75
2023/07/26 12:15:25;;;;;;;7.25;3.05;;;22.70;91.10;;;;;;5132176;27;20102;-75
2023/07/26 12:18:02;;;;;;;7.43;2.85;;;22.80;90.30;;;;;;5132049;27;20011;-75
2023/07/26 12:20:29;;;;;;;6.97;2.92;;;22.70;88.90;;;;;;5132154;27;20027;-75
2023/07/26 12:23:00;;;;;;;5.68;3.53;;;22.50;90.30;;;;;;5131918;27;20422;-75
2023/07/26 12:25:37;;;;;;;6.60;3.53;;;22.40;91.40;;;;;;5131642;27;20055;-75
2023/07/26 12:28:07;;;;;;;6.43;3.28;;;22.40;91.80;;;;;;5112869;27;20019;-75
2023/07/26 12:30:34;;;;;;;6.40;3.05;;;22.30;91.60;;;;;;5128356;27;20023;-75
2023/07/26 12:33:13;;;;;;;5.97;3.20;;;22.50;91.70;;;;;;5128916;27;20061;-76
2023/07/26 12:35:44;;;;;;;6.32;3.22;;;22.60;91.40;;;;;;5131807;27;20015;-76
2023/07/26 12:38:21;;;;;;;7.25;2.75;;;22.60;91.00;;;;;;5131707;27;20027;-76
2023/07/26 12:40:47;;;;;;;5.07;3.10;;;22.40;90.50;;;;;;5131807;27;20030;-76
2023/07/26 12:43:39;;;;;;;5.47;3.20;;;22.20;90.90;;;;;;5118075;27;20015;-76
2023/07/26 12:46:05;;;;;;;6.22;3.30;;;22.20;91.50;;;;;;5128231;27;20050;-75
2023/07/26 12:48:33;;;;;;;5.47;2.90;;;22.30;91.80;;;;;;5130768;27;20028;-76